Sierra Nevada Aquatic Research Lab (SNARL) Reserve, California Weather observations

Data are for 10 minute period ending at time listed.
 Day   Time   Solar   Ave.   Ave.  Ave.  Vector  Max.   Baro.   Total    
  of    of     Rad.   Air    Rel.  Wind   Wind   Wind  Press.  Precip.   
Year   Day            Temp.  Hum.  Speed  Dir.   Gust                    
2015   (PST)  Kw/m2    F      %     mph   deg.    mph    mb.     in.     
-------------------------------------------------------------------------
 246   20:30   100.00  99999.0   99999  99999.0   99999   99999.0   99999.0   99999.00 
 246   20:40   100.00  99999.0   99999  99999.0   99999   99999.0   99999.0   99999.00 
 246   20:50   100.00  99999.0   99999  99999.0   99999   99999.0   99999.0   99999.00 
 246   21:00   100.00  99999.0   99999  99999.0   99999   99999.0   99999.0   99999.00 
 246   21:10   100.00  99999.0   99999  99999.0   99999   99999.0   99999.0   99999.00 
 246   21:20   100.00  99999.0   99999  99999.0   99999   99999.0   99999.0   99999.00 
 246   21:30   100.00  99999.0   99999  99999.0   99999   99999.0   99999.0   99999.00 
 246   21:40   100.00  99999.0   99999  99999.0   99999   99999.0   99999.0   99999.00 
 246   21:50   100.00  99999.0   99999  99999.0   99999   99999.0   99999.0   99999.00 
 246   22:00   100.00  99999.0   99999  99999.0   99999   99999.0   99999.0   99999.00 
 246   22:10   100.00  99999.0   99999  99999.0   99999   99999.0   99999.0   99999.00 
 246   22:20   100.00  99999.0   99999  99999.0   99999   99999.0   99999.0   99999.00 
 246   22:30   100.00  99999.0   99999  99999.0   99999   99999.0   99999.0   99999.00 
 246   22:40   100.00  99999.0   99999  99999.0   99999   99999.0   99999.0   99999.00 
 246   22:50   100.00  99999.0   99999  99999.0   99999   99999.0   99999.0   99999.00 
 246   23:00   100.00  99999.0   99999  99999.0   99999   99999.0   99999.0   99999.00 
 246   23:10   100.00  99999.0   99999  99999.0   99999   99999.0   99999.0   99999.00 
 246   23:20   100.00  99999.0   99999  99999.0   99999   99999.0   99999.0   99999.00 
 246   23:30   100.00  99999.0   99999  99999.0   99999   99999.0   99999.0   99999.00 
 246   23:40   100.00  99999.0   99999  99999.0   99999   99999.0   99999.0   99999.00 
 246   23:50   100.00  99999.0   99999  99999.0   99999   99999.0   99999.0   99999.00 
 247    0:00   100.00  99999.0   99999  99999.0   99999   99999.0   99999.0   99999.00 
 247    0:10   100.00  99999.0   99999  99999.0   99999   99999.0   99999.0   99999.00 
 247    0:20   100.00  99999.0   99999  99999.0   99999   99999.0   99999.0   99999.00 
 247    0:30   100.00  99999.0   99999  99999.0   99999   99999.0   99999.0   99999.00 
 247    0:40   100.00  99999.0   99999  99999.0   99999   99999.0   99999.0   99999.00 
 247    0:50   100.00  99999.0   99999  99999.0   99999   99999.0   99999.0   99999.00 
 247    1:00   100.00  99999.0   99999  99999.0   99999   99999.0   99999.0   99999.00 
 247    1:10   0.00   36.7    71    3.1   226     5.0   780.8    0.00 
 247    1:20   0.00   36.7    72    3.1   222     4.9   780.7    0.00 
 247    1:30   0.00   37.2    72    4.6   250     6.9   780.6    0.00 
 247    1:40   0.00   38.4    68    3.0   109     5.8   780.5    0.00 
 247    1:50   0.00   38.0    69    2.7   241     6.4   780.5    0.00 
 247    2:00   0.00   37.7    66    0.9   146     3.4   780.5    0.00 
 247    2:10   0.00   37.7    65    1.7   129     3.6   780.4    0.00 
 247    2:20   0.00   37.1    66    2.7   252     4.2   780.4    0.00 
 247    2:30   0.00   36.8    68    0.7   357     2.6   780.4    0.00 
 247    2:40   0.00   35.0    70    1.9   214     4.1   780.4    0.00 
 247    2:50   0.00   34.9    71    1.0   190     4.7   780.5    0.00 
 247    3:00   0.00   34.5    73    1.9   211     3.9   780.5    0.00 
 247    3:10   0.00   35.1    76    1.9   273     3.7   780.5    0.00 
 247    3:20   0.00   34.1    77    1.0   209     4.6   780.5    0.00 
 247    3:30   0.00   33.8    77    1.4   161     3.4   780.5    0.00 
 247    3:40   0.00   34.2    81    1.1    76     2.6   780.5    0.00 
 247    3:50   0.00   35.4    77    1.6   207     2.9   780.5    0.00 
 247    4:00   0.00   34.5    77    1.8   197     3.9   780.5    0.00 
 247    4:10   0.00   35.7    77    1.2   298     4.1   780.6    0.00 
 247    4:20   0.00   35.2    77    1.0   188     3.9   780.6    0.00 
 247    4:30   0.00   34.5    78    2.1   144     3.9   780.6    0.00 
 247    4:40   0.00   34.4    81    1.4    16     3.6   780.6    0.00 
 247    4:50   0.00   33.9    80    1.3   204     3.7   780.7    0.00 
 247    5:00   0.00   32.9    82    3.2   257     5.8   780.7    0.00 
 247    5:10   0.00   33.2    84    2.3   284     4.4   780.7    0.00 
 247    5:20   0.00   33.2    84    1.5   278     2.7   780.8    0.00 
 247    5:30   0.00   32.9    83    2.5   213     5.4   780.8    0.00 
 247    5:40   0.00   34.3    80    1.8   216     5.3   780.8    0.00 
 247    5:50   0.02   35.1    79    1.2   254     3.1   780.8    0.00 
 247    6:00   0.04   36.2    77    1.8   218     3.5   780.9    0.00 
 247    6:10   0.06   38.7    74    1.0   210     2.6   780.9    0.00 
 247    6:20   0.08   41.2    70    1.8   140     2.8   780.9    0.00 
 247    6:30   0.11   44.1    65    2.3    80     3.5   781.0    0.00 
 247    6:40   0.15   46.7    61    0.6   132     1.8   781.0    0.00 
 247    6:50   0.18   49.9    56    1.0    59     3.1   780.9    0.00 
 247    7:00   0.22   50.1    54    2.1    59     4.2   780.9    0.00 
 247    7:10   0.26   51.0    55    2.3    52     4.8   780.8    0.00 
 247    7:20   0.29   52.2    54    2.8    50     5.1   780.7    0.00 
 247    7:30   0.33   53.5    50    3.2    64     5.3   780.7    0.00 
 247    7:40   0.36   54.2    47    2.6    74     4.8   780.6    0.00 
 247    7:50   0.40   55.1    45    2.3    70     5.6   780.6    0.00 
 247    8:00   0.41   55.9    44    2.9    76     5.2   780.4    0.00 
 247    8:10   0.47   56.4    43    3.8    85     8.6   780.3    0.00 
 247    8:20   0.50   57.3    41    3.3    77     7.6   780.3    0.00 
 247    8:30   0.53   57.2    40    5.5    87    10.0   780.3    0.00 
 247    8:40   0.56   57.8    39    4.5    85    11.1   780.4    0.00 
 247    8:50   0.60   58.2    38    2.0    58     8.1   780.4    0.00 
 247    9:00   0.63   59.5    38    3.5    57    10.2   780.3    0.00 
 247    9:10   0.65   60.1    35    3.8    44     6.8   780.4    0.00 
 247    9:20   0.68   60.7    36    3.6    57     9.0   780.4    0.00 
 247    9:30   0.70   61.6    33    3.9    71     7.2   780.5    0.00 
 247    9:40   0.73   62.2    32    6.1    81    10.6   780.4    0.00 
 247    9:50   0.76   62.5    30    7.7    83    12.9   780.4    0.00 
 247   10:00   0.77   63.6    27    6.4    93    15.2   780.5    0.00 
 247   10:10   0.79   64.3    22    5.9   342    15.9   780.4    0.00 
 247   10:20   0.80   65.5    20   11.1   211    30.8   780.5    0.00 
 247   10:30   0.82   65.6    17   12.6   237    36.2   780.4    0.00 
 247   10:40   0.84   65.5    16   13.1   223    29.6   780.5    0.00 
 247   10:50   0.84   65.7    16   14.7   227    28.3   780.3    0.00 
 247   11:00   0.84   66.7    15   10.0   228    28.0   780.3    0.00 
 247   11:10   0.85   67.0    15   12.7   245    28.4   780.3    0.00 
 247   11:20   0.86   67.2    15   13.4   228    28.1   780.3    0.00 
 247   11:30   0.86   66.5    14   18.0   229    28.9   780.2    0.00 
 247   11:40   0.88   67.2    14   15.8   225    32.2   780.1    0.00 
 247   11:50   0.86   67.4    15   18.3   231    32.9   780.0    0.00 
 247   12:00   0.86   67.7    16   17.0   232    27.2   779.9    0.00 
 247   12:10   0.81   67.0    17   12.0   210    36.3   779.9    0.00 
 247   12:20   0.89   67.4    18   13.3   218    24.5   779.9    0.00 
 247   12:30   0.87   67.6    17   15.0   211    30.3   779.9    0.00 
 247   12:40   0.89   67.9    17   14.9   235    30.4   779.8    0.00 
 247   12:50   0.83   68.0    18   14.1   232    29.7   779.8    0.00 
 247   13:00   0.85   68.7    16   12.1   232    30.3   779.7    0.00 
 247   13:10   0.86   68.3    17   15.1   227    29.7   779.7    0.00 
 247   13:20   0.82   68.5    18   11.4   232    26.2   779.6    0.00 
 247   13:30   0.82   68.5    18   17.4   220    29.7   779.7    0.00 
 247   13:40   0.80   68.6    17   13.6   226    26.5   779.6    0.00 
 247   13:50   0.79   68.3    18   13.3   238    29.0   779.6    0.00 
 247   14:00   0.77   67.8    17   15.1   229    29.1   779.6    0.00 
 247   14:10   0.75   68.2    17   12.8   218    26.8   779.6    0.00 
 247   14:20   0.73   68.2    18   15.7   234    32.4   779.6    0.00 
 247   14:30   0.72   68.4    18   13.6   233    28.9   779.6    0.00 
 247   14:40   0.70   68.3    18   15.8   241    29.3   779.6    0.00 
 247   14:50   0.67   67.7    18   15.1   236    28.9   779.7    0.00 
 247   15:00   0.64   68.1    20   13.1   233    21.9   779.7    0.00 
 247   15:10   0.62   67.7    21   12.0   243    21.3   779.8    0.00 
 247   15:20   0.58   66.6    23   12.6   253    25.1   779.8    0.00 
 247   15:30   0.55   66.7    23   12.2   238    22.1   779.9    0.00 
 247   15:40   0.52   66.9    23    8.3   248    18.0   780.0    0.00 
 247   15:50   0.48   66.0    23   11.4   254    20.8   780.0    0.00 
 247   16:00   0.45   65.6    23   12.5   236    20.4   780.0    0.00 
 247   16:10   0.41   65.1    24   10.3   234    17.7   780.0    0.00 
 247   16:20   0.37   64.9    23   11.9   242    21.2   780.0    0.00 
 247   16:30   0.34   64.4    24   13.8   244    22.0   780.0    0.00 
 247   16:40   0.30   63.4    22   13.6   250    27.1   780.1    0.00 
 247   16:50   0.27   62.8    22   13.8   249    20.9   780.1    0.00 
 247   17:00   0.23   62.4    22   14.1   240    25.6   780.1    0.00 
 247   17:10   0.20   61.8    24   12.2   252    24.5   780.2    0.00 
 247   17:20   0.16   61.2    23   14.3   232    21.8   780.3    0.00 
 247   17:30   0.13   60.6    25   11.0   246    19.1   780.2    0.00 
 247   17:40   0.09   60.2    24    8.8   253    21.9   780.1    0.00 
 247   17:50   0.06   59.3    26    9.7   246    17.0   780.1    0.00 
 247   18:00   0.02   58.6    28    9.1   234    16.1   780.1    0.00 
 247   18:10   0.01   57.7    28    8.5   238    16.0   780.0    0.00 
 247   18:20   0.00   57.1    30    8.0   235    14.0   780.0    0.00 
 247   18:30   0.00   55.5    31    5.2   212     8.0   779.9    0.00 
 247   18:40   0.00   54.7    32    4.1   201    11.2   779.8    0.00 
 247   18:50   0.00   52.9    34    2.8   209     5.6   779.8    0.00 
 247   19:00   0.00   51.7    35    1.7   292     5.4   779.9    0.00 
 247   19:10   0.00   51.4    37    3.5   268     7.8   780.0    0.00 
 247   19:20   0.00   50.6    41    2.5   324     5.1   780.0    0.00 
 247   19:30   0.00   49.1    41    3.0   279     6.9   780.1    0.00 
 247   19:40   0.00   48.2    42    2.4   238     6.0   780.3    0.00 
 247   19:50   0.00   49.0    49    7.9   267    14.5   780.4    0.00 
 247   20:00   0.00   50.5    47    7.4   274    12.3   780.5    0.00 
 247   20:10   0.00   50.4    47    6.9   278    12.7   780.6    0.00 
 247   20:20   0.00   49.5    48    2.0    92     5.2   780.7    0.00 

Return to SNARL Reserve graphs page.


Western Regional Climate Center,wrcc@dri.edu